Terminal Aerodrome Forecast
Issued by NWS

Home | Current Version | Previous Version | Text Only | Print | Product List | Glossary On
Versions: 1 2 3 4 5 6 7 8 9 10 11 12 13 14 15 16
000
FTUS41 KCLE 171735
TAFFDY
TAF
KFDY 171735Z 1718/1818 18008KT P6SM OVC200
     FM172000 19008KT P6SM VCSH BKN050 OVC100
      TEMPO 1721/1724 -RA BKN025
     FM180500 20008KT 5SM BR SCT012 OVC020
     FM181200 22008KT 2SM BR OVC006=

USA.gov is the U.S. government's official web portal to all federal, state and local government web resources and services.